createdAt,value
2018-09-01T00:00:45.329Z,78.20
2018-09-01T00:03:13.620Z,77.80
2018-09-01T00:05:41.866Z,77.70
2018-09-01T00:08:10.069Z,77.80
2018-09-01T00:10:38.339Z,77.10
2018-09-01T00:13:06.716Z,76.40
2018-09-01T00:15:35.047Z,77.50
2018-09-01T00:18:03.299Z,77.00
2018-09-01T00:20:31.501Z,76.70
2018-09-01T00:22:59.731Z,77.10
2018-09-01T00:25:28.002Z,77.10
2018-09-01T00:27:56.285Z,77.60
2018-09-01T00:30:24.511Z,78.50
2018-09-01T00:32:53.123Z,79.30
2018-09-01T00:35:21.334Z,78.50
2018-09-01T00:37:54.930Z,78.20
2018-09-01T00:40:28.177Z,78.70
2018-09-01T00:42:57.953Z,77.90
2018-09-01T00:45:26.271Z,77.70
2018-09-01T00:47:54.702Z,77.70
2018-09-01T00:50:22.948Z,77.60
2018-09-01T00:52:51.245Z,76.70
2018-09-01T00:55:24.890Z,77.10
2018-09-01T00:57:53.386Z,78.40
2018-09-01T01:00:22.053Z,77.50
2018-09-01T01:02:50.902Z,78.80
2018-09-01T01:05:19.212Z,78.30
2018-09-01T01:07:47.446Z,77.50
2018-09-01T01:10:15.670Z,77.50
2018-09-01T01:12:44.115Z,77.50
2018-09-01T01:15:12.453Z,76.30
2018-09-01T01:17:40.652Z,77.90
2018-09-01T01:20:08.877Z,78.50
2018-09-01T01:22:37.165Z,78.80
2018-09-01T01:25:05.853Z,78.80
2018-09-01T01:27:34.213Z,78.70
2018-09-01T01:30:02.745Z,77.40
2018-09-01T01:32:31.054Z,77.40
2018-09-01T01:35:03.838Z,77.50
2018-09-01T01:37:33.655Z,77.60
2018-09-01T01:40:02.689Z,78.80
2018-09-01T01:42:31.261Z,79.10
2018-09-01T01:44:59.484Z,78.10
2018-09-01T01:47:27.690Z,78.00
2018-09-01T01:49:55.903Z,78.30
2018-09-01T01:52:24.273Z,78.40
2018-09-01T01:54:52.555Z,78.40
2018-09-01T01:57:20.846Z,79.00
2018-09-01T01:59:49.112Z,79.00
2018-09-01T02:02:17.343Z,78.20
2018-09-01T02:04:45.578Z,77.50
2018-09-01T02:07:13.825Z,78.30
2018-09-01T02:09:42.077Z,76.90
2018-09-01T02:12:10.593Z,77.00
2018-09-01T02:14:38.837Z,76.50
2018-09-01T02:17:07.036Z,76.80
2018-09-01T02:19:35.257Z,77.70
2018-09-01T02:22:03.489Z,78.20
2018-09-01T02:24:31.725Z,78.20
2018-09-01T02:26:59.922Z,78.70
2018-09-01T02:29:28.170Z,78.70
2018-09-01T02:31:56.365Z,77.40
2018-09-01T02:34:24.593Z,78.80
2018-09-01T02:36:52.823Z,78.30
2018-09-01T02:39:21.062Z,78.50
2018-09-01T02:41:49.285Z,78.20
2018-09-01T02:44:17.549Z,79.60
2018-09-01T02:46:45.806Z,79.80
2018-09-01T02:49:14.013Z,81.00
2018-09-01T02:51:42.237Z,82.00
2018-09-01T02:54:10.460Z,80.40
2018-09-01T02:56:38.710Z,80.80
2018-09-01T02:59:06.971Z,81.00
2018-09-01T03:01:37.715Z,82.10
2018-09-01T03:04:06.962Z,82.90
2018-09-01T03:06:57.627Z,82.90
2018-09-01T03:09:26.030Z,83.90
2018-09-01T03:11:55.340Z,83.60
2018-09-01T03:14:24.606Z,82.20
2018-09-01T03:16:53.705Z,81.50
2018-09-01T03:19:22.121Z,82.10
2018-09-01T03:21:50.377Z,82.10
2018-09-01T03:24:18.679Z,81.20
2018-09-01T03:26:46.934Z,80.80
2018-09-01T03:29:15.153Z,81.30
2018-09-01T03:31:43.383Z,81.60
2018-09-01T03:34:11.566Z,82.30
2018-09-01T03:36:39.907Z,83.20
2018-09-01T03:39:09.593Z,83.20
2018-09-01T03:41:44.457Z,82.10
2018-09-01T03:44:12.734Z,82.60
2018-09-01T03:46:40.919Z,83.00
2018-09-01T03:49:09.898Z,81.80
2018-09-01T03:51:38.139Z,82.70
2018-09-01T03:54:06.515Z,83.10
2018-09-01T03:56:34.701Z,83.60
2018-09-01T03:59:02.913Z,83.40
2018-09-01T04:01:31.137Z,82.70
2018-09-01T04:03:59.326Z,83.10
2018-09-01T04:06:27.526Z,83.10
2018-09-01T04:08:55.705Z,83.80
2018-09-01T04:11:23.965Z,83.00
2018-09-01T04:13:52.172Z,82.70
2018-09-01T04:16:20.465Z,82.60
2018-09-01T04:18:48.685Z,83.20
2018-09-01T04:21:16.911Z,84.40
2018-09-01T04:23:45.127Z,83.20
2018-09-01T04:26:13.300Z,83.40
2018-09-01T04:28:41.713Z,85.00
2018-09-01T04:31:09.902Z,84.40
2018-09-01T04:33:38.185Z,85.30
2018-09-01T04:36:06.414Z,85.90
2018-09-01T04:38:34.691Z,86.90
2018-09-01T04:41:02.950Z,87.40
2018-09-01T04:43:31.181Z,87.30
2018-09-01T04:45:59.416Z,86.00
2018-09-01T04:48:27.650Z,86.10
2018-09-01T04:50:55.851Z,86.00
2018-09-01T04:53:24.149Z,86.80
2018-09-01T04:55:52.392Z,87.80
2018-09-01T04:58:20.663Z,88.50
2018-09-01T05:00:48.919Z,88.70
2018-09-01T05:03:17.142Z,88.80
2018-09-01T05:05:45.361Z,88.60
2018-09-01T05:08:13.609Z,88.40
2018-09-01T05:10:41.897Z,86.60
2018-09-01T05:13:10.182Z,87.70
2018-09-01T05:15:38.449Z,86.00
2018-09-01T05:18:06.693Z,85.40
2018-09-01T05:20:34.896Z,84.50
2018-09-01T05:23:03.159Z,85.20
2018-09-01T05:25:31.399Z,86.10
2018-09-01T05:27:59.637Z,85.70
2018-09-01T05:30:27.861Z,86.00
2018-09-01T05:32:56.077Z,85.50
2018-09-01T05:35:24.414Z,86.30
2018-09-01T05:37:52.746Z,86.20
2018-09-01T05:40:21.000Z,85.90
2018-09-01T05:42:49.238Z,85.20
2018-09-01T05:45:17.433Z,83.30
2018-09-01T05:47:45.662Z,83.10
2018-09-01T05:50:14.036Z,82.60
2018-09-01T05:52:42.307Z,82.50
2018-09-01T05:55:10.517Z,83.50
2018-09-01T05:57:38.763Z,84.20
2018-09-01T06:00:07.685Z,83.60
2018-09-01T06:02:35.983Z,82.20
2018-09-01T06:05:04.711Z,82.80
2018-09-01T06:07:32.961Z,82.80
2018-09-01T06:10:01.209Z,82.50
2018-09-01T06:12:29.429Z,82.60
2018-09-01T06:14:57.701Z,82.40
2018-09-01T06:17:25.971Z,82.90
2018-09-01T06:19:54.245Z,82.00
2018-09-01T06:22:22.526Z,82.30
2018-09-01T06:24:50.786Z,81.50
2018-09-01T06:27:26.580Z,81.70
2018-09-01T06:29:54.809Z,79.60
2018-09-01T06:32:23.120Z,80.00
2018-09-01T06:34:51.330Z,80.90
2018-09-01T06:37:19.753Z,80.90
2018-09-01T06:39:47.985Z,82.00
2018-09-01T06:42:16.226Z,79.60
2018-09-01T06:44:44.473Z,80.00
2018-09-01T06:47:12.846Z,80.60
2018-09-01T06:49:41.135Z,81.30
2018-09-01T06:52:09.357Z,81.40
2018-09-01T06:54:37.632Z,81.00
2018-09-01T06:57:06.013Z,81.30
2018-09-01T06:59:34.237Z,81.50
2018-09-01T07:02:02.969Z,80.10
2018-09-01T07:04:31.179Z,81.60
2018-09-01T07:06:59.535Z,80.50
2018-09-01T07:09:27.729Z,79.70
2018-09-01T07:11:55.957Z,80.50
2018-09-01T07:14:24.204Z,80.90
2018-09-01T07:16:52.445Z,80.70
2018-09-01T07:19:20.656Z,80.40
2018-09-01T07:21:48.913Z,79.30
2018-09-01T07:24:17.175Z,79.40
2018-09-01T07:26:45.388Z,77.90
2018-09-01T07:29:13.611Z,77.30
2018-09-01T07:31:42.197Z,78.90
2018-09-01T07:34:10.820Z,76.50
2018-09-01T07:36:39.181Z,77.80
2018-09-01T07:39:07.950Z,78.00
2018-09-01T07:41:36.237Z,77.20
2018-09-01T07:44:04.543Z,78.50
2018-09-01T07:46:32.864Z,76.90
2018-09-01T07:49:01.097Z,76.10
2018-09-01T07:51:29.382Z,77.00
2018-09-01T07:53:57.733Z,76.00
2018-09-01T07:56:26.024Z,77.70
2018-09-01T07:58:54.292Z,78.40
2018-09-01T08:01:23.202Z,75.50
2018-09-01T08:03:51.449Z,74.60
2018-09-01T08:06:19.661Z,76.20
2018-09-01T08:08:47.890Z,74.70
2018-09-01T08:11:16.133Z,73.70
2018-09-01T08:13:44.418Z,71.50
2018-09-01T08:16:13.133Z,73.00
2018-09-01T08:18:41.402Z,72.30
2018-09-01T08:21:09.675Z,73.20
2018-09-01T08:23:37.920Z,72.00
2018-09-01T08:26:06.266Z,72.70
2018-09-01T08:28:34.393Z,70.10
2018-09-01T08:31:02.765Z,70.50
2018-09-01T08:33:30.984Z,72.10
2018-09-01T08:35:59.162Z,68.20
2018-09-01T08:38:27.431Z,70.20
2018-09-01T08:40:55.622Z,70.30
2018-09-01T08:43:23.862Z,71.00
2018-09-01T08:45:52.091Z,73.00
2018-09-01T08:48:20.289Z,71.70
2018-09-01T08:50:48.655Z,71.10
2018-09-01T08:53:16.895Z,69.10
2018-09-01T08:55:45.125Z,68.40
2018-09-01T08:58:13.416Z,66.60
2018-09-01T09:00:41.736Z,66.90
2018-09-01T09:03:10.020Z,67.60
2018-09-01T09:05:38.230Z,67.60
2018-09-01T09:08:06.591Z,66.40
2018-09-01T09:10:34.813Z,66.20
2018-09-01T09:13:03.000Z,65.00
2018-09-01T09:15:31.261Z,65.00
2018-09-01T09:17:59.520Z,65.10
2018-09-01T09:20:27.805Z,63.40
2018-09-01T09:22:56.053Z,63.10
2018-09-01T09:25:24.481Z,64.40
2018-09-01T09:27:52.963Z,62.30
2018-09-01T09:30:21.164Z,62.90
2018-09-01T09:32:49.389Z,62.80
2018-09-01T09:35:17.619Z,62.90
2018-09-01T09:37:45.851Z,64.50
2018-09-01T09:40:14.111Z,64.50
2018-09-01T09:42:42.322Z,64.10
2018-09-01T09:45:10.674Z,63.10
2018-09-01T09:47:42.197Z,63.90
2018-09-01T09:50:10.458Z,63.50
2018-09-01T09:52:38.641Z,61.90
2018-09-01T09:55:06.937Z,60.50
2018-09-01T09:57:35.221Z,62.50
2018-09-01T10:00:03.498Z,62.70
2018-09-01T10:02:31.717Z,61.90
2018-09-01T10:04:59.925Z,62.70
2018-09-01T10:07:28.126Z,62.80
2018-09-01T10:09:56.453Z,63.40
2018-09-01T10:12:24.733Z,63.20
2018-09-01T10:14:53.022Z,62.70
2018-09-01T10:17:21.305Z,63.40
2018-09-01T10:19:49.509Z,63.10
2018-09-01T10:22:17.785Z,63.20
2018-09-01T10:24:46.090Z,62.30
2018-09-01T10:27:14.382Z,62.80
2018-09-01T10:29:42.805Z,62.10
2018-09-01T10:32:11.095Z,61.80
2018-09-01T10:34:40.405Z,62.50
2018-09-01T10:37:08.656Z,63.30
2018-09-01T10:39:36.851Z,63.20
2018-09-01T10:42:05.198Z,62.80
2018-09-01T10:44:33.516Z,62.80
2018-09-01T10:47:01.714Z,62.30
2018-09-01T10:49:29.961Z,63.40
2018-09-01T10:51:58.226Z,64.20
2018-09-01T10:54:26.610Z,64.20
2018-09-01T10:56:54.843Z,65.20
2018-09-01T10:59:23.059Z,64.50
2018-09-01T11:01:51.278Z,64.00
2018-09-01T11:04:19.507Z,63.80
2018-09-01T11:06:47.817Z,64.30
2018-09-01T11:09:16.091Z,63.80
2018-09-01T11:11:44.344Z,63.80
2018-09-01T11:14:12.550Z,63.20
2018-09-01T11:16:40.785Z,63.40
2018-09-01T11:19:09.046Z,62.50
2018-09-01T11:21:37.435Z,64.10
2018-09-01T11:24:05.775Z,64.90
2018-09-01T11:26:34.125Z,62.90
2018-09-01T11:29:02.460Z,63.00
2018-09-01T11:31:30.733Z,63.40
2018-09-01T11:33:59.019Z,62.70
2018-09-01T11:36:27.389Z,62.20
2018-09-01T11:38:55.571Z,60.80
2018-09-01T11:41:23.847Z,62.70
2018-09-01T11:43:52.340Z,62.00
2018-09-01T11:46:21.184Z,62.60
2018-09-01T11:48:49.508Z,62.70
2018-09-01T11:51:17.792Z,62.50
2018-09-01T11:53:46.015Z,62.70
2018-09-01T11:56:14.212Z,62.90
2018-09-01T11:58:42.496Z,61.90
2018-09-01T12:01:10.682Z,61.20
2018-09-01T12:03:38.945Z,60.70
2018-09-01T12:06:07.334Z,61.70
2018-09-01T12:08:35.541Z,62.10
2018-09-01T12:11:03.780Z,61.10
2018-09-01T12:13:32.173Z,61.40
2018-09-01T12:16:00.414Z,61.30
2018-09-01T12:18:28.706Z,61.20
2018-09-01T12:20:56.987Z,61.80
2018-09-01T12:23:26.204Z,62.00
2018-09-01T12:25:54.413Z,62.10
2018-09-01T12:28:22.772Z,62.70
2018-09-01T12:30:51.156Z,62.90
2018-09-01T12:33:19.437Z,61.80
2018-09-01T12:35:47.663Z,61.70
2018-09-01T12:38:15.904Z,61.90
2018-09-01T12:40:44.114Z,61.80
2018-09-01T12:43:12.398Z,62.10
2018-09-01T12:45:40.865Z,60.20
2018-09-01T12:48:09.802Z,59.90
2018-09-01T12:50:38.025Z,59.30
2018-09-01T12:53:06.377Z,58.60
2018-09-01T12:55:34.569Z,58.80
2018-09-01T12:58:02.835Z,58.70
2018-09-01T13:00:31.185Z,59.00
2018-09-01T13:02:59.401Z,57.80
2018-09-01T13:05:27.666Z,58.00
2018-09-01T13:07:55.903Z,57.40
2018-09-01T13:10:24.145Z,57.30
2018-09-01T13:12:52.330Z,57.80
2018-09-01T13:15:20.564Z,57.70
2018-09-01T13:17:48.842Z,58.70
2018-09-01T13:20:17.050Z,58.60
2018-09-01T13:22:45.337Z,57.40
2018-09-01T13:25:13.672Z,55.50
2018-09-01T13:27:41.829Z,55.60
2018-09-01T13:30:10.065Z,56.10
2018-09-01T13:32:38.257Z,56.90
2018-09-01T13:35:06.466Z,56.30
2018-09-01T13:37:34.678Z,55.60
2018-09-01T13:40:03.052Z,55.90
2018-09-01T13:42:31.258Z,54.90
2018-09-01T13:44:59.485Z,55.00
2018-09-01T13:47:27.741Z,55.60
2018-09-01T13:49:55.958Z,56.00
2018-09-01T13:52:24.167Z,56.30
2018-09-01T13:54:52.609Z,56.20
2018-09-01T13:57:20.915Z,56.20
2018-09-01T13:59:49.057Z,56.20
2018-09-01T14:02:17.266Z,56.60
2018-09-01T14:04:45.862Z,56.60
2018-09-01T14:07:14.071Z,57.60
2018-09-01T14:09:42.314Z,56.50
2018-09-01T14:12:10.625Z,56.40
2018-09-01T14:14:38.934Z,56.20
2018-09-01T14:17:07.033Z,57.40
2018-09-01T14:19:35.266Z,55.80
2018-09-01T14:22:03.502Z,56.20
2018-09-01T14:24:31.765Z,56.90
2018-09-01T14:26:59.980Z,55.80
2018-09-01T14:29:28.369Z,56.30
2018-09-01T14:31:56.613Z,55.80
2018-09-01T14:34:25.809Z,57.10
2018-09-01T14:36:54.152Z,57.50
2018-09-01T14:39:22.360Z,56.80
2018-09-01T14:41:50.638Z,56.80
2018-09-01T14:44:18.974Z,57.30
2018-09-01T14:46:47.339Z,57.20
2018-09-01T14:49:15.490Z,57.80
2018-09-01T14:51:43.783Z,56.90
2018-09-01T14:54:12.238Z,57.60
2018-09-01T14:56:40.474Z,56.40
2018-09-01T14:59:08.685Z,56.60
2018-09-01T15:01:36.953Z,56.90
2018-09-01T15:04:05.209Z,57.10
2018-09-01T15:06:33.616Z,57.40
2018-09-01T15:09:01.856Z,57.70
2018-09-01T15:11:30.077Z,57.50
2018-09-01T15:13:58.306Z,57.20
2018-09-01T15:16:26.521Z,56.90
2018-09-01T15:18:54.780Z,57.40
2018-09-01T15:21:23.083Z,57.60
2018-09-01T15:23:51.325Z,58.90
2018-09-01T15:26:19.687Z,59.90
2018-09-01T15:28:47.946Z,59.50
2018-09-01T15:31:16.173Z,60.40
2018-09-01T15:33:44.409Z,61.50
2018-09-01T15:36:12.813Z,61.30
2018-09-01T15:38:41.058Z,60.60
2018-09-01T15:41:09.536Z,60.40
2018-09-01T15:43:37.777Z,61.20
2018-09-01T15:46:06.052Z,61.40
2018-09-01T15:48:34.226Z,61.50
2018-09-01T15:51:02.509Z,61.40
2018-09-01T15:53:37.535Z,62.20
2018-09-01T15:56:05.781Z,62.70
2018-09-01T15:58:33.948Z,64.60
2018-09-01T16:01:02.129Z,64.90
2018-09-01T16:03:30.612Z,64.60
2018-09-01T16:05:58.907Z,64.70
2018-09-01T16:08:27.072Z,64.80
2018-09-01T16:10:55.277Z,65.20
2018-09-01T16:13:23.475Z,65.40
2018-09-01T16:15:51.733Z,66.60
2018-09-01T16:18:19.976Z,65.70
2018-09-01T16:20:48.238Z,67.30
2018-09-01T16:23:16.481Z,66.80
2018-09-01T16:25:44.738Z,67.90
2018-09-01T16:28:13.005Z,68.10
2018-09-01T16:30:41.254Z,68.20
2018-09-01T16:33:09.477Z,67.80
2018-09-01T16:35:37.765Z,69.30
2018-09-01T16:38:05.965Z,69.90
2018-09-01T16:40:34.134Z,70.80
2018-09-01T16:43:02.324Z,70.60
2018-09-01T16:45:30.788Z,71.50
2018-09-01T16:47:58.998Z,70.40
2018-09-01T16:50:27.227Z,69.50
2018-09-01T16:52:55.468Z,69.70
2018-09-01T16:55:23.729Z,67.60
2018-09-01T16:57:51.970Z,68.40
2018-09-01T17:00:20.294Z,69.50
2018-09-01T17:02:48.461Z,69.20
2018-09-01T17:05:16.697Z,67.70
2018-09-01T17:07:44.952Z,70.00
2018-09-01T17:10:13.208Z,71.10
2018-09-01T17:12:41.433Z,71.60
2018-09-01T17:15:09.724Z,72.90
2018-09-01T17:17:37.989Z,73.50
2018-09-01T17:20:06.494Z,74.70
2018-09-01T17:22:34.949Z,75.00
2018-09-01T17:25:03.219Z,75.90
2018-09-01T17:27:31.393Z,74.60
2018-09-01T17:29:59.712Z,75.60
2018-09-01T17:32:27.980Z,76.30
2018-09-01T17:34:56.191Z,76.90
2018-09-01T17:37:24.721Z,76.90
2018-09-01T17:39:53.141Z,77.10
2018-09-01T17:42:21.483Z,78.00
2018-09-01T17:44:49.740Z,78.00
2018-09-01T17:47:18.029Z,74.70
2018-09-01T17:49:46.312Z,75.30
2018-09-01T17:52:14.606Z,76.00
2018-09-01T17:54:43.779Z,76.20
2018-09-01T17:57:12.193Z,75.70
2018-09-01T17:59:40.570Z,74.40
2018-09-01T18:02:09.203Z,75.10
2018-09-01T18:04:37.379Z,75.40
2018-09-01T18:07:05.717Z,75.10
2018-09-01T18:09:33.957Z,73.90
2018-09-01T18:12:02.193Z,74.10
2018-09-01T18:14:30.573Z,74.80
2018-09-01T18:16:58.825Z,74.00
2018-09-01T18:19:27.067Z,74.40
2018-09-01T18:21:55.382Z,73.70
2018-09-01T18:24:23.650Z,72.30
2018-09-01T18:26:51.867Z,73.60
2018-09-01T18:29:20.156Z,74.40
2018-09-01T18:31:48.401Z,74.00
2018-09-01T18:34:16.604Z,74.60
2018-09-01T18:36:44.887Z,72.80
2018-09-01T18:39:13.139Z,72.50
2018-09-01T18:41:41.446Z,72.60
2018-09-01T18:44:09.653Z,71.90
2018-09-01T18:46:37.853Z,72.70
2018-09-01T18:49:06.065Z,73.10
2018-09-01T18:51:34.354Z,73.20
2018-09-01T18:54:02.574Z,72.70
2018-09-01T18:56:30.808Z,73.30
2018-09-01T18:58:59.002Z,71.50
2018-09-01T19:01:27.248Z,71.60
2018-09-01T19:03:55.701Z,71.80
2018-09-01T19:06:23.981Z,72.70
2018-09-01T19:08:52.265Z,72.00
2018-09-01T19:11:20.482Z,72.90
2018-09-01T19:13:48.804Z,73.30
2018-09-01T19:16:17.032Z,73.50
2018-09-01T19:18:45.230Z,74.50
2018-09-01T19:21:13.465Z,75.50
2018-09-01T19:23:41.793Z,76.30
2018-09-01T19:26:10.122Z,76.90
2018-09-01T19:28:38.363Z,77.00
2018-09-01T19:31:06.602Z,78.20
2018-09-01T19:33:34.836Z,79.30
2018-09-01T19:36:03.101Z,79.70
2018-09-01T19:38:31.349Z,79.20
2018-09-01T19:40:59.599Z,79.60
2018-09-01T19:43:28.706Z,80.10
2018-09-01T19:45:56.939Z,79.30
2018-09-01T19:48:25.186Z,79.20
2018-09-01T19:50:53.397Z,79.00
2018-09-01T19:53:21.649Z,78.40
2018-09-01T19:55:49.967Z,78.90
2018-09-01T19:58:18.289Z,80.00
2018-09-01T20:00:46.461Z,79.70
2018-09-01T20:03:14.860Z,80.80
2018-09-01T20:05:43.239Z,81.20
2018-09-01T20:08:11.431Z,81.90
2018-09-01T20:10:39.722Z,81.80
2018-09-01T20:13:07.945Z,81.90
2018-09-01T20:15:36.246Z,81.80
2018-09-01T20:18:04.454Z,81.80
2018-09-01T20:20:32.673Z,82.30
2018-09-01T20:23:00.907Z,81.90
2018-09-01T20:25:29.174Z,82.50
2018-09-01T20:27:57.509Z,82.80
2018-09-01T20:30:25.827Z,83.20
2018-09-01T20:32:54.069Z,82.90
2018-09-01T20:35:27.670Z,82.60
2018-09-01T20:37:56.059Z,83.20
2018-09-01T20:40:24.255Z,83.50
2018-09-01T20:42:52.486Z,83.00
2018-09-01T20:45:20.675Z,83.70
2018-09-01T20:47:48.934Z,83.40
2018-09-01T20:50:17.190Z,83.90
2018-09-01T20:52:45.516Z,84.00
2018-09-01T20:55:13.793Z,83.30
2018-09-01T20:57:42.108Z,84.00
2018-09-01T21:00:10.241Z,84.20
2018-09-01T21:02:38.493Z,84.40
2018-09-01T21:05:06.765Z,84.50
2018-09-01T21:07:35.037Z,85.00
2018-09-01T21:10:03.402Z,85.20
2018-09-01T21:12:31.659Z,84.80
2018-09-01T21:14:59.867Z,84.50
2018-09-01T21:17:28.077Z,84.30
2018-09-01T21:19:56.335Z,84.50
2018-09-01T21:22:24.724Z,84.70
2018-09-01T21:24:53.093Z,84.90
2018-09-01T21:27:21.385Z,84.70
2018-09-01T21:29:49.633Z,84.60
2018-09-01T21:32:18.408Z,84.70
2018-09-01T21:34:46.748Z,84.60
2018-09-01T21:37:14.993Z,84.70
2018-09-01T21:39:43.455Z,84.80
2018-09-01T21:42:11.756Z,85.10
2018-09-01T21:44:40.064Z,84.80
2018-09-01T21:47:08.295Z,85.20
2018-09-01T21:49:36.584Z,84.30
2018-09-01T21:52:04.913Z,84.30
2018-09-01T21:54:33.125Z,84.40
2018-09-01T21:57:01.457Z,84.40
2018-09-01T21:59:29.693Z,84.60
2018-09-01T22:02:03.277Z,84.70
2018-09-01T22:04:36.835Z,83.90
2018-09-01T22:07:05.090Z,83.50
2018-09-01T22:09:33.361Z,83.80
2018-09-01T22:12:01.590Z,84.80
2018-09-01T22:14:30.178Z,84.90
2018-09-01T22:16:58.465Z,85.60
2018-09-01T22:19:26.974Z,85.00
2018-09-01T22:21:55.204Z,85.40
2018-09-01T22:24:23.636Z,85.00
2018-09-01T22:26:51.935Z,85.00
2018-09-01T22:29:20.131Z,85.60
2018-09-01T22:31:48.323Z,85.10
2018-09-01T22:34:16.601Z,85.00
2018-09-01T22:36:44.878Z,84.80
2018-09-01T22:39:13.121Z,83.90
2018-09-01T22:41:41.305Z,84.50
2018-09-01T22:44:09.525Z,84.80
2018-09-01T22:46:37.769Z,84.80
2018-09-01T22:49:06.034Z,85.10
2018-09-01T22:51:34.309Z,84.70
2018-09-01T22:54:02.629Z,84.60
2018-09-01T22:56:30.861Z,85.00
2018-09-01T22:58:59.133Z,84.70
2018-09-01T23:01:27.359Z,84.10
2018-09-01T23:03:55.577Z,85.20
2018-09-01T23:06:23.957Z,85.70
2018-09-01T23:08:52.166Z,86.50
2018-09-01T23:11:20.348Z,86.50
2018-09-01T23:13:48.605Z,86.40
2018-09-01T23:16:16.900Z,86.50
2018-09-01T23:18:45.097Z,86.80
2018-09-01T23:21:13.321Z,86.70
2018-09-01T23:23:41.540Z,86.20
2018-09-01T23:26:09.732Z,86.30
2018-09-01T23:31:12.734Z,86.00
2018-09-01T23:33:40.986Z,85.70
2018-09-01T23:36:09.115Z,86.40
2018-09-01T23:38:37.324Z,86.00
2018-09-01T23:41:05.582Z,86.00
2018-09-01T23:43:33.817Z,86.00
2018-09-01T23:46:02.050Z,85.20
2018-09-01T23:48:30.296Z,84.70
2018-09-01T23:50:58.513Z,85.10
2018-09-01T23:53:26.771Z,85.10
2018-09-01T23:55:54.988Z,85.30
2018-09-01T23:58:23.311Z,85.00
